Time;durP1;ratioP1;P1;durP2;ratioP2;P2;SDS_P1;SDS_P2;PMS_P1;PMS_P2;Temp;Humidity;BMP_temperature;BMP_pressure;BME280_temperature;BME280_humidity;BME280_pressure;Samples;Min_cycle;Max_cycle;Signal;HPM_P1;HPM_P2
2020/12/09 00:01:54;;;;;;;26.80;17.52;;;;;;;-2.74;76.21;98559.98;1815424;79;22239;-70
2020/12/09 00:04:40;;;;;;;23.22;17.10;;;;;;;-2.72;76.08;98581.39;1815319;79;21007;-69
2020/12/09 00:07:08;;;;;;;24.02;15.85;;;;;;;-2.74;75.99;98575.30;1815475;79;20987;-71
2020/12/09 00:09:35;;;;;;;29.65;17.52;;;;;;;-2.68;75.90;98580.05;1815593;79;21302;-71
2020/12/09 00:12:03;;;;;;;24.35;16.90;;;;;;;-2.70;75.80;98567.37;1815558;79;20908;-70
2020/12/09 00:14:30;;;;;;;22.45;15.35;;;;;;;-2.72;75.83;98573.96;1815572;79;21801;-69
2020/12/09 00:17:33;;;;;;;18.95;15.93;;;;;;;-2.74;75.80;98559.98;1815543;79;20916;-70
2020/12/09 00:20:01;;;;;;;22.15;16.02;;;;;;;-2.74;75.67;98569.18;1815510;78;20992;-69
2020/12/09 00:22:33;;;;;;;22.77;15.72;;;;;;;-2.77;75.80;98561.33;1815402;79;20976;-70
2020/12/09 00:25:03;;;;;;;26.93;17.52;;;;;;;-2.79;75.89;98572.29;1815532;79;20901;-70
2020/12/09 00:27:33;;;;;;;24.50;16.77;;;;;;;-2.79;75.96;98567.03;1815544;78;21360;-70
2020/12/09 00:30:05;;;;;;;21.23;16.75;;;;;;;-2.80;75.88;98575.37;1815452;79;20936;-70
2020/12/09 00:32:30;;;;;;;22.15;17.50;;;;;;;-2.80;75.92;98577.14;1815353;78;20983;-69
2020/12/09 00:34:58;;;;;;;23.83;15.95;;;;;;;-2.80;76.00;98577.14;1815459;79;20928;-70
2020/12/09 00:37:25;;;;;;;26.45;15.55;;;;;;;-2.81;75.91;98576.25;1815533;79;20905;-69
2020/12/09 00:39:53;;;;;;;24.82;17.57;;;;;;;-2.77;75.83;98579.73;1815398;79;21383;-69
2020/12/09 00:42:21;;;;;;;24.72;17.40;;;;;;;-2.77;75.73;98577.11;1815425;79;20995;-69
2020/12/09 00:44:50;;;;;;;21.17;14.68;;;;;;;-2.78;75.73;98567.47;1815474;78;20983;-69
2020/12/09 00:47:20;;;;;;;20.92;16.05;;;;;;;-2.79;75.69;98570.55;1815516;79;21397;-70
2020/12/09 00:52:44;;;;;;;21.12;14.07;;;;;;;-2.79;75.68;98576.23;1809225;78;21250;-69
2020/12/09 00:55:14;;;;;;;19.85;15.20;;;;;;;-2.81;75.55;98578.02;1815576;79;20932;-68
2020/12/09 00:57:45;;;;;;;20.00;14.38;;;;;;;-2.83;75.62;98575.41;1815539;79;20909;-71
2020/12/09 01:00:16;;;;;;;19.73;15.05;;;;;;;-2.86;75.64;98575.45;1815426;79;21477;-70
2020/12/09 01:02:45;;;;;;;19.48;14.20;;;;;;;-2.87;75.78;98578.09;1815404;79;20908;-70
2020/12/09 01:05:13;;;;;;;26.80;15.15;;;;;;;-2.88;75.75;98579.86;1815468;79;21661;-70
2020/12/09 01:07:42;;;;;;;22.82;15.40;;;;;;;-2.88;75.88;98584.27;1815437;79;21003;-70
2020/12/09 01:10:10;;;;;;;21.23;14.68;;;;;;;-2.91;75.87;98584.70;1815481;79;20963;-70
2020/12/09 01:12:41;;;;;;;21.60;14.98;;;;;;;-2.91;75.82;98578.13;1815349;79;21011;-71
2020/12/09 01:15:09;;;;;;;18.62;14.38;;;;;;;-2.91;76.01;98578.59;1815522;79;20972;-69
2020/12/09 01:17:38;;;;;;;20.92;13.95;;;;;;;-2.91;76.06;98572.88;1815484;79;21186;-70
2020/12/09 01:20:05;;;;;;;21.77;15.68;;;;;;;-2.89;76.08;98572.00;1815352;79;20916;-69
2020/12/09 01:22:34;;;;;;;22.25;15.15;;;;;;;-2.91;76.20;98568.93;1800789;79;20933;-69
2020/12/09 01:25:03;;;;;;;22.13;15.83;;;;;;;-2.89;76.25;98572.00;1797798;79;21008;-69
2020/12/09 01:27:30;;;;;;;21.68;15.83;;;;;;;-2.89;76.31;98578.57;1797895;79;20964;-69
2020/12/09 01:29:59;;;;;;;19.27;15.80;;;;;;;-2.88;76.30;98575.06;1797792;79;21357;-69
2020/12/09 01:32:27;;;;;;;22.73;15.48;;;;;;;-2.87;76.28;98580.27;1797755;79;21031;-70
2020/12/09 01:34:55;;;;;;;17.55;13.83;;;;;;;-2.89;76.35;98584.69;1797857;79;20941;-69
2020/12/09 01:37:23;;;;;;;21.93;14.43;;;;;;;-2.88;76.25;98581.63;1797852;79;20917;-69
2020/12/09 01:39:51;;;;;;;17.87;14.38;;;;;;;-2.87;76.30;98587.30;1797776;79;21000;-70
2020/12/09 01:42:19;;;;;;;24.40;14.78;;;;;;;-2.87;76.27;98596.50;1797836;79;21945;-70
2020/12/09 01:44:47;;;;;;;21.82;16.20;;;;;;;-2.86;76.14;98583.79;1797913;79;20976;-71
2020/12/09 01:47:16;;;;;;;21.57;16.05;;;;;;;-2.88;76.03;98585.13;1797865;79;20925;-69
2020/12/09 01:49:45;;;;;;;20.23;15.05;;;;;;;-2.87;75.97;98583.35;1797782;79;20925;-69
2020/12/09 01:52:12;;;;;;;19.55;15.35;;;;;;;-2.85;75.92;98577.63;1797820;79;20917;-69
2020/12/09 01:54:39;;;;;;;21.07;15.58;;;;;;;-2.86;75.95;98583.34;1797898;79;21362;-69
2020/12/09 01:57:12;;;;;;;22.67;15.45;;;;;;;-2.84;75.87;98582.00;1797753;79;21048;-70
2020/12/09 01:59:41;;;;;;;20.30;14.15;;;;;;;-2.85;75.94;98581.56;1797923;79;21449;-69
2020/12/09 02:02:08;;;;;;;20.17;14.85;;;;;;;-2.86;75.89;98575.45;1797781;79;20924;-70
2020/12/09 02:04:36;;;;;;;19.52;15.10;;;;;;;-2.86;75.92;98570.64;1797960;79;20897;-70
2020/12/09 02:07:04;;;;;;;21.95;16.05;;;;;;;-2.86;75.87;98565.39;1797767;79;21431;-70
2020/12/09 02:09:32;;;;;;;20.77;15.13;;;;;;;-2.84;75.96;98571.48;1797778;79;21007;-70
2020/12/09 02:12:01;;;;;;;22.42;15.58;;;;;;;-2.86;75.92;98573.27;1797813;79;20972;-70
2020/12/09 02:14:29;;;;;;;19.07;14.85;;;;;;;-2.88;75.91;98564.55;1797801;79;20964;-70
2020/12/09 02:17:00;;;;;;;20.57;13.85;;;;;;;-2.91;75.79;98568.07;1797782;79;20893;-70
2020/12/09 02:19:27;;;;;;;23.92;16.07;;;;;;;-2.94;76.00;98558.91;1797683;79;22673;-71
2020/12/09 02:22:10;;;;;;;25.90;15.90;;;;;;;-2.96;76.06;98561.56;1804934;79;20932;-70
2020/12/09 02:24:37;;;;;;;29.02;17.27;;;;;;;-2.98;76.10;98558.09;1815559;79;20919;-70
2020/12/09 02:27:06;;;;;;;20.23;15.10;;;;;;;-3.00;76.07;98557.22;1815290;79;20897;-69
2020/12/09 02:29:33;;;;;;;20.25;14.28;;;;;;;-3.02;76.14;98555.06;1815449;79;20904;-69
2020/12/09 02:32:00;;;;;;;18.25;14.38;;;;;;;-3.01;76.22;98560.75;1815485;79;22734;-70
2020/12/09 02:34:28;;;;;;;19.02;14.50;;;;;;;-3.02;76.24;98559.00;1815396;79;20994;-70
2020/12/09 02:36:56;;;;;;;20.00;14.00;;;;;;;-3.02;76.24;98561.63;1815459;79;20908;-70
2020/12/09 02:39:36;;;;;;;20.70;14.07;;;;;;;-3.08;76.24;98549.88;1815371;79;20904;-70
2020/12/09 02:42:05;;;;;;;21.60;14.75;;;;;;;-3.07;76.17;98563.45;1815357;78;20920;-69
2020/12/09 02:44:34;;;;;;;19.95;14.53;;;;;;;-3.11;76.35;98557.80;1815465;78;20924;-69
2020/12/09 02:47:01;;;;;;;23.05;14.58;;;;;;;-3.10;76.34;98551.66;1815450;79;21425;-70
2020/12/09 02:49:30;;;;;;;20.10;14.00;;;;;;;-3.10;76.24;98556.92;1815350;79;20992;-70
2020/12/09 02:51:59;;;;;;;19.02;14.63;;;;;;;-3.10;76.19;98552.52;1815365;79;21584;-71
2020/12/09 02:54:26;;;;;;;17.73;13.90;;;;;;;-3.10;76.32;98558.23;1815398;79;20900;-70
2020/12/09 02:56:55;;;;;;;22.25;14.30;;;;;;;-3.07;76.35;98559.94;1815424;78;21356;-70
2020/12/09 02:59:24;;;;;;;19.67;14.80;;;;;;;-3.08;76.13;98560.39;1815124;79;20939;-70
2020/12/09 03:01:51;;;;;;;17.55;13.35;;;;;;;-3.09;76.19;98552.06;1815338;79;20929;-70
2020/12/09 03:04:19;;;;;;;20.95;14.80;;;;;;;-3.11;76.17;98559.11;1815458;79;21556;-70
2020/12/09 03:06:47;;;;;;;19.10;14.58;;;;;;;-3.09;76.08;98562.58;1815427;79;20904;-70
2020/12/09 03:09:14;;;;;;;19.98;14.87;;;;;;;-3.09;76.11;98564.78;1815382;79;21398;-70
2020/12/09 03:11:42;;;;;;;19.95;14.45;;;;;;;-3.10;76.11;98562.17;1815303;79;20920;-70
2020/12/09 03:14:10;;;;;;;19.65;14.33;;;;;;;-3.11;76.10;98551.22;1815367;79;20971;-70
2020/12/09 03:16:37;;;;;;;21.17;15.35;;;;;;;-3.15;76.21;98541.66;1815328;79;20904;-70
2020/12/09 03:19:04;;;;;;;17.80;14.45;;;;;;;-3.16;76.29;98542.53;1815365;79;20923;-70
2020/12/09 03:21:32;;;;;;;18.30;15.05;;;;;;;-3.17;76.33;98543.41;1814190;79;21741;-70
2020/12/09 03:24:00;;;;;;;19.75;15.18;;;;;;;-3.20;76.43;98549.59;1804269;79;20925;-70
2020/12/09 03:26:28;;;;;;;23.40;15.98;;;;;;;-3.20;76.46;98544.77;1804227;79;21016;-71
2020/12/09 03:28:56;;;;;;;22.98;14.80;;;;;;;-3.22;76.52;98543.92;1804174;79;20865;-70
2020/12/09 03:31:23;;;;;;;23.12;14.13;;;;;;;-3.23;76.58;98534.29;1804343;79;20897;-70
2020/12/09 03:33:52;;;;;;;17.37;14.43;;;;;;;-3.22;76.63;98539.98;1804298;79;22670;-70
2020/12/09 03:36:19;;;;;;;21.25;13.83;;;;;;;-3.23;76.67;98536.91;1804190;79;20996;-70
2020/12/09 03:38:46;;;;;;;19.62;15.03;;;;;;;-3.21;76.77;98531.22;1804276;79;20917;-69
2020/12/09 03:41:15;;;;;;;19.45;14.50;;;;;;;-3.26;76.64;98539.16;1804200;79;20866;-69
2020/12/09 03:43:42;;;;;;;15.58;12.63;;;;;;;-3.28;76.71;98541.80;1804452;79;20870;-70
2020/12/09 03:46:10;;;;;;;25.80;14.87;;;;;;;-3.28;76.72;98537.86;1804421;79;21374;-70
2020/12/09 03:48:39;;;;;;;18.80;13.53;;;;;;;-3.27;76.73;98535.63;1804423;79;20992;-70
2020/12/09 03:51:07;;;;;;;22.52;14.53;;;;;;;-3.25;76.66;98537.39;1804382;79;20941;-70
2020/12/09 03:53:35;;;;;;;19.57;13.95;;;;;;;-3.27;76.51;98532.16;1804480;79;21453;-70
2020/12/09 03:56:03;;;;;;;22.67;14.93;;;;;;;-3.30;76.64;98533.05;1804456;79;20869;-70
2020/12/09 03:58:30;;;;;;;20.77;14.43;;;;;;;-3.31;76.65;98519.50;1804401;79;21350;-70
2020/12/09 04:00:59;;;;;;;26.55;13.98;;;;;;;-3.26;76.69;98526.02;1804366;79;21481;-71
2020/12/09 04:03:27;;;;;;;19.42;14.15;;;;;;;-3.28;76.65;98533.92;1804553;79;21461;-70
2020/12/09 04:05:55;;;;;;;20.75;14.80;;;;;;;-3.24;76.62;98528.63;1804407;79;21330;-70
2020/12/09 04:08:22;;;;;;;19.02;14.15;;;;;;;-3.24;76.78;98537.37;1804459;79;20992;-71
2020/12/09 04:10:50;;;;;;;20.10;15.90;;;;;;;-3.21;76.80;98519.40;1804417;79;22237;-70
2020/12/09 04:13:17;;;;;;;19.92;14.50;;;;;;;-3.19;76.74;98529.44;1804399;79;21442;-70
2020/12/09 04:15:45;;;;;;;22.67;15.15;;;;;;;-3.18;76.65;98518.05;1804410;79;21459;-70
2020/12/09 04:18:13;;;;;;;21.10;16.07;;;;;;;-3.20;76.75;98519.80;1804454;79;20908;-71
2020/12/09 04:20:40;;;;;;;17.70;14.45;;;;;;;-3.20;76.94;98518.48;1804344;79;20956;-70
2020/12/09 04:23:07;;;;;;;21.27;15.83;;;;;;;-3.19;76.93;98519.78;1804330;78;21791;-70
2020/12/09 04:25:35;;;;;;;20.10;15.43;;;;;;;-3.17;76.90;98521.97;1804453;79;21354;-70
2020/12/09 04:28:04;;;;;;;19.92;15.60;;;;;;;-3.14;76.98;98543.38;1804449;79;20913;-70
2020/12/09 04:30:32;;;;;;;22.22;16.82;;;;;;;-3.13;76.95;98540.73;1804293;79;20945;-70
2020/12/09 04:33:01;;;;;;;19.42;15.20;;;;;;;-3.10;76.92;98531.95;1804466;79;21501;-70
2020/12/09 04:35:28;;;;;;;24.07;17.45;;;;;;;-3.13;76.74;98542.05;1804368;79;21203;-70
2020/12/09 04:37:55;;;;;;;23.40;17.07;;;;;;;-3.08;76.72;98548.56;1804310;79;20969;-70
2020/12/09 04:40:25;;;;;;;30.02;17.27;;;;;;;-3.09;76.78;98548.13;1804435;79;20912;-70
2020/12/09 04:43:00;;;;;;;27.42;18.50;;;;;;;-3.10;76.76;98542.02;1804329;78;21326;-69
2020/12/09 04:45:29;;;;;;;26.02;17.17;;;;;;;-3.06;76.70;98541.98;1804517;79;21454;-71
2020/12/09 04:48:07;;;;;;;22.95;15.05;;;;;;;-3.06;76.77;98532.78;1804435;79;22247;-70
2020/12/09 04:51:04;;;;;;;28.55;17.02;;;;;;;-3.05;76.68;98530.13;1804360;79;21307;-70
2020/12/09 04:53:33;;;;;;;22.13;16.87;;;;;;;-3.07;76.66;98534.55;1804376;79;20912;-71
2020/12/09 04:56:01;;;;;;;25.95;16.95;;;;;;;-3.07;76.61;98540.22;1804308;79;21437;-69
2020/12/09 04:58:45;;;;;;;23.65;16.67;;;;;;;-3.07;76.65;98543.74;1804463;79;20984;-71
2020/12/09 05:01:15;;;;;;;23.30;16.12;;;;;;;-3.09;76.74;98538.92;1804335;79;21189;-70
2020/12/09 05:03:45;;;;;;;22.60;15.83;;;;;;;-3.09;76.79;98542.45;1804318;79;20917;-70
2020/12/09 05:06:16;;;;;;;23.50;15.88;;;;;;;-3.09;76.85;98542.45;1804368;79;21432;-70
2020/12/09 05:08:54;;;;;;;21.27;15.48;;;;;;;-3.09;76.84;98541.55;1804364;78;20909;-70
2020/12/09 05:11:24;;;;;;;20.30;15.23;;;;;;;-3.10;76.87;98540.70;1804331;79;20968;-70
2020/12/09 05:13:58;;;;;;;26.02;17.50;;;;;;;-3.09;76.95;98534.98;1804430;79;22247;-70
2020/12/09 05:16:26;;;;;;;23.52;17.07;;;;;;;-3.08;76.99;98540.67;1804462;79;20936;-70
2020/12/09 05:18:58;;;;;;;27.80;18.02;;;;;;;-3.06;77.01;98543.29;1804419;79;21323;-70
2020/12/09 05:21:26;;;;;;;24.32;15.10;;;;;;;-3.07;77.05;98541.12;1804237;79;20873;-69
2020/12/09 05:23:57;;;;;;;30.20;17.90;;;;;;;-3.08;77.11;98538.05;1799125;78;21328;-70
2020/12/09 05:26:32;;;;;;;24.05;16.62;;;;;;;-3.08;77.01;98535.42;1797831;79;21366;-69
2020/12/09 05:29:09;;;;;;;22.02;15.32;;;;;;;-3.09;77.13;98541.55;1797806;79;21008;-68
2020/12/09 05:31:46;;;;;;;21.73;15.28;;;;;;;-3.10;77.00;98542.47;1797709;79;20980;-70
2020/12/09 05:34:28;;;;;;;19.98;15.13;;;;;;;-3.11;77.01;98544.20;1797966;79;21362;-70
2020/12/09 05:37:04;;;;;;;25.45;16.25;;;;;;;-3.11;77.08;98548.59;1797939;79;21319;-70
2020/12/09 05:39:35;;;;;;;23.52;14.28;;;;;;;-3.11;77.08;98554.71;1797603;79;21804;-69
2020/12/09 05:42:16;;;;;;;23.07;17.45;;;;;;;-3.11;77.13;98559.11;1795786;79;20936;-69
2020/12/09 05:44:45;;;;;;;23.85;18.07;;;;;;;-3.11;77.12;98560.42;1797915;79;20988;-69
2020/12/09 05:47:14;;;;;;;25.62;17.77;;;;;;;-3.11;77.28;98550.77;1797571;79;21454;-70
2020/12/09 05:49:44;;;;;;;32.60;17.57;;;;;;;-3.10;77.21;98554.29;1776168;79;20968;-70
2020/12/09 05:52:17;;;;;;;32.05;20.05;;;;;;;-3.09;77.27;98554.70;1797850;79;22076;-70
2020/12/09 05:54:52;;;;;;;25.08;18.95;;;;;;;-3.11;77.23;98559.11;1797663;79;21024;-71
2020/12/09 05:57:24;;;;;;;26.62;17.48;;;;;;;-3.12;77.37;98562.64;1797486;79;21000;-69
2020/12/09 05:59:55;;;;;;;31.12;19.77;;;;;;;-3.14;77.42;98572.28;1797755;79;20917;-70
2020/12/09 06:02:28;;;;;;;27.70;18.37;;;;;;;-3.13;77.46;98572.27;1797862;79;20897;-69
2020/12/09 06:05:00;;;;;;;22.40;15.53;;;;;;;-3.12;77.49;98571.84;1798076;79;21372;-70
2020/12/09 06:07:31;;;;;;;24.60;16.62;;;;;;;-3.15;77.46;98575.81;1797667;79;20913;-70
2020/12/09 06:10:16;;;;;;;24.45;18.10;;;;;;;-3.18;77.51;98571.45;1797779;79;21446;-70
2020/12/09 06:12:59;;;;;;;22.90;15.55;;;;;;;-3.22;77.57;98571.50;1797881;79;21462;-69
2020/12/09 06:15:32;;;;;;;24.43;17.48;;;;;;;-3.25;77.68;98574.16;1797920;79;21493;-70
2020/12/09 06:18:13;;;;;;;25.72;16.93;;;;;;;-3.23;77.66;98575.01;1797680;79;21350;-70
2020/12/09 06:20:44;;;;;;;28.40;17.17;;;;;;;-3.27;77.72;98573.72;1797208;79;21676;-72
2020/12/09 06:23:14;;;;;;;22.60;15.95;;;;;;;-3.22;77.57;98582.02;1797810;79;20933;-70
2020/12/09 06:25:43;;;;;;;23.67;16.82;;;;;;;-3.25;77.80;98580.28;1797255;79;20969;-70
2020/12/09 06:28:14;;;;;;;24.00;16.67;;;;;;;-3.22;77.64;98585.50;1797803;79;20917;-70
2020/12/09 06:30:43;;;;;;;27.52;17.67;;;;;;;-3.23;77.78;98575.90;1798044;79;21415;-71
2020/12/09 06:33:37;;;;;;;25.08;17.25;;;;;;;-3.24;77.76;98579.41;1797793;79;21407;-70
2020/12/09 06:36:21;;;;;;;25.52;17.20;;;;;;;-3.25;77.66;98575.02;1797888;79;20932;-70
2020/12/09 06:39:13;;;;;;;26.05;17.45;;;;;;;-3.24;77.80;98578.55;1797267;79;21528;-68
2020/12/09 06:41:48;;;;;;;22.32;16.10;;;;;;;-3.23;77.77;98582.89;1797699;79;21000;-71
2020/12/09 06:44:17;;;;;;;26.00;17.27;;;;;;;-3.24;77.71;98584.66;1795633;79;21238;-70
2020/12/09 06:46:49;;;;;;;26.40;16.73;;;;;;;-3.27;77.82;98584.23;1797728;79;20885;-69
2020/12/09 06:49:37;;;;;;;19.77;13.75;;;;;;;-3.27;77.77;98593.42;1797316;79;20984;-72
2020/12/09 06:52:16;;;;;;;20.65;16.90;;;;;;;-3.29;77.87;98576.83;1797532;79;20878;-70
2020/12/09 06:54:48;;;;;;;30.45;19.07;;;;;;;-3.29;78.04;98576.83;1792756;79;20925;-70
2020/12/09 06:57:37;;;;;;;28.35;17.23;;;;;;;-3.25;78.03;98578.10;1797824;79;21415;-70
2020/12/09 07:00:18;;;;;;;23.38;16.42;;;;;;;-3.25;77.98;98589.92;1797851;79;20925;-69
2020/12/09 07:02:53;;;;;;;25.77;17.95;;;;;;;-3.21;77.96;98589.02;1797802;79;21354;-69
2020/12/09 07:05:30;;;;;;;23.50;17.55;;;;;;;-3.21;77.88;98585.94;1797793;79;20972;-69
2020/12/09 07:08:03;;;;;;;30.05;19.23;;;;;;;-3.18;77.82;98579.80;1797959;79;21413;-69
2020/12/09 07:10:32;;;;;;;27.60;17.15;;;;;;;-3.16;77.91;98579.32;1797806;79;21410;-70
2020/12/09 07:36:51;;;;;;;33.35;18.32;;;;;;;-3.00;77.91;98558.98;1806735;77;21015;-68
2020/12/09 07:39:34;;;;;;;35.08;19.73;;;;;;;-3.04;77.96;98562.52;1803755;79;22038;-75
2020/12/09 07:42:03;;;;;;;33.58;19.12;;;;;;;-3.02;77.94;98572.14;1803650;79;21462;-74
2020/12/09 07:44:31;;;;;;;34.80;20.60;;;;;;;-3.03;78.04;98575.65;1803546;79;20960;-71
2020/12/09 07:46:59;;;;;;;31.40;19.05;;;;;;;-3.01;77.95;98564.70;1803630;79;21016;-76
2020/12/09 07:49:26;;;;;;;35.35;20.50;;;;;;;-2.99;78.08;98564.67;1803792;79;20984;-80
2020/12/09 07:51:57;;;;;;;28.47;18.00;;;;;;;-2.97;77.88;98562.44;1803579;79;21869;-77
2020/12/09 07:54:24;;;;;;;27.82;17.52;;;;;;;-2.95;77.77;98571.19;1803523;79;20988;-75
2020/12/09 07:56:51;;;;;;;32.08;19.55;;;;;;;-2.89;77.82;98577.26;1803707;79;21019;-73
2020/12/09 07:59:21;;;;;;;35.48;18.80;;;;;;;-2.90;77.78;98568.52;1803588;79;21008;-76
2020/12/09 08:01:50;;;;;;;28.87;17.00;;;;;;;-2.86;77.65;98585.11;1803977;79;21060;-74
2020/12/09 08:04:27;;;;;;;33.15;18.25;;;;;;;-2.94;77.57;98574.22;1803879;79;21203;-74
2020/12/09 08:07:00;;;;;;;35.43;20.92;;;;;;;-2.99;77.87;98566.85;1804200;79;20929;-76
2020/12/09 08:09:28;;;;;;;35.40;21.70;;;;;;;-3.00;77.99;98565.09;1792184;79;20980;-75
2020/12/09 08:11:56;;;;;;;35.43;21.12;;;;;;;-2.98;78.03;98579.11;1804146;79;20933;-77
2020/12/09 08:14:33;;;;;;;36.33;20.55;;;;;;;-2.96;78.03;98566.81;1775469;79;20913;-77
2020/12/09 08:17:09;;;;;;;29.50;19.30;;;;;;;-2.97;77.97;98573.41;1804217;79;21409;-74
2020/12/09 08:19:58;;;;;;;34.70;18.77;;;;;;;-2.98;78.08;98563.77;1795855;79;20976;-83
2020/12/09 08:22:28;;;;;;;31.33;19.32;;;;;;;-2.97;78.10;98571.63;1804250;79;20889;-80
2020/12/09 08:25:07;;;;;;;31.62;17.55;;;;;;;-2.97;78.13;98562.44;1804059;79;20901;-80
2020/12/09 08:27:45;;;;;;;36.15;19.48;;;;;;;-2.96;78.23;98564.19;1804416;79;20904;-80
2020/12/09 08:30:22;;;;;;;32.28;19.50;;;;;;;-2.97;78.16;98559.81;1804408;79;21417;-83
2020/12/09 08:33:09;;;;;;;36.63;20.45;;;;;;;-2.95;78.20;98568.56;1804341;79;21410;-80
2020/12/09 08:35:58;;;;;;;29.63;19.95;;;;;;;-2.91;78.28;98570.25;1804487;79;20924;-79
2020/12/09 08:38:47;;;;;;;28.62;17.52;;;;;;;-2.92;78.14;98575.52;1804415;79;20917;-76
2020/12/09 08:41:34;;;;;;;28.90;17.85;;;;;;;-2.90;78.14;98581.66;1804019;79;20929;-79
2020/12/09 08:44:06;;;;;;;26.77;17.85;;;;;;;-2.87;78.21;98574.16;1804428;79;21366;-77
2020/12/09 08:46:34;;;;;;;35.15;17.27;;;;;;;-2.85;77.99;98557.91;1804349;79;20920;-77
2020/12/09 08:49:03;;;;;;;30.45;17.92;;;;;;;-2.83;77.81;98565.35;1804532;79;21481;-80
2020/12/09 08:51:33;;;;;;;33.53;18.82;;;;;;;-2.78;77.72;98554.33;1804254;79;20968;-77
2020/12/09 08:54:07;;;;;;;27.00;17.52;;;;;;;-2.81;77.64;98562.25;1804131;78;21023;-78
2020/12/09 08:56:38;;;;;;;27.55;18.32;;;;;;;-2.78;77.69;98563.52;1804310;79;21762;-77
2020/12/09 08:59:07;;;;;;;37.40;18.10;;;;;;;-2.75;77.62;98570.06;1804329;79;20941;-79
2020/12/09 09:01:38;;;;;;;38.17;18.92;;;;;;;-2.76;77.48;98574.88;1804350;79;21055;-78
2020/12/09 09:04:07;;;;;;;28.77;18.55;;;;;;;-2.73;77.38;98568.27;1804336;79;20909;-76
2020/12/09 09:06:35;;;;;;;34.08;18.87;;;;;;;-2.73;77.41;98564.33;1804501;79;21455;-79
2020/12/09 09:09:04;;;;;;;28.30;19.12;;;;;;;-2.72;77.27;98568.70;1804242;79;21135;-81
2020/12/09 09:11:33;;;;;;;33.45;19.55;;;;;;;-2.70;77.28;98570.86;1804334;79;21362;-77
2020/12/09 09:14:01;;;;;;;31.02;21.02;;;;;;;-2.67;77.20;98568.19;1804332;79;21000;-78
2020/12/09 09:16:28;;;;;;;30.80;18.80;;;;;;;-2.68;77.33;98563.84;1804262;79;21041;-77
2020/12/09 09:18:57;;;;;;;32.48;19.27;;;;;;;-2.65;77.18;98568.17;1804404;79;20916;-78
2020/12/09 09:21:33;;;;;;;27.70;17.70;;;;;;;-2.65;77.13;98566.43;1804261;79;21766;-78
2020/12/09 09:24:01;;;;;;;29.40;18.85;;;;;;;-2.61;77.24;98572.05;1804343;79;20968;-80
2020/12/09 09:26:34;;;;;;;29.10;17.65;;;;;;;-2.59;77.17;98561.06;1804313;79;21031;-80
2020/12/09 09:29:03;;;;;;;28.70;17.50;;;;;;;-2.58;77.01;98558.86;1804335;79;20953;-77
2020/12/09 09:31:30;;;;;;;28.47;17.35;;;;;;;-2.55;76.94;98557.51;1804363;79;21390;-80
2020/12/09 09:33:57;;;;;;;32.88;18.90;;;;;;;-2.52;76.88;98568.87;1804497;79;22010;-79
2020/12/09 09:36:31;;;;;;;35.75;19.10;;;;;;;-2.51;76.78;98562.73;1804297;78;20882;-78
2020/12/09 09:39:00;;;;;;;26.65;17.95;;;;;;;-2.49;76.80;98555.25;1804351;79;21006;-79
2020/12/09 09:41:29;;;;;;;27.80;16.62;;;;;;;-2.50;76.74;98549.55;1804326;79;20991;-78
2020/12/09 09:43:59;;;;;;;33.10;18.70;;;;;;;-2.47;76.62;98545.56;1804448;79;20957;-79
2020/12/09 09:46:27;;;;;;;30.40;19.90;;;;;;;-2.48;76.76;98539.02;1804316;79;21806;-77
2020/12/09 09:48:55;;;;;;;36.42;22.58;;;;;;;-2.48;76.66;98541.19;1804326;79;20925;-78
2020/12/09 09:51:23;;;;;;;36.70;20.52;;;;;;;-2.47;76.66;98536.81;1804327;79;20960;-80
2020/12/09 09:53:50;;;;;;;39.18;19.85;;;;;;;-2.47;76.68;98532.41;1804419;79;21011;-78
2020/12/09 09:56:18;;;;;;;39.23;22.00;;;;;;;-2.49;76.82;98524.11;1804389;79;20928;-76
2020/12/09 09:58:46;;;;;;;34.50;18.35;;;;;;;-2.49;76.92;98526.73;1804325;79;21742;-76
2020/12/09 10:01:17;;;;;;;24.98;17.62;;;;;;;-2.48;76.97;98528.48;1804328;79;21473;-77
2020/12/09 10:03:45;;;;;;;30.72;19.07;;;;;;;-2.46;76.74;98524.06;1804407;79;20911;-75
2020/12/09 10:06:13;;;;;;;28.57;18.98;;;;;;;-2.44;76.79;98527.11;1804410;78;20913;-77
2020/12/09 10:08:42;;;;;;;32.08;19.17;;;;;;;-2.46;76.79;98521.02;1804376;79;20924;-77
2020/12/09 10:11:10;;;;;;;26.65;17.10;;;;;;;-2.44;76.63;98520.99;1804293;79;21390;-77
2020/12/09 10:13:39;;;;;;;29.27;18.02;;;;;;;-2.43;76.56;98530.59;1804340;79;21027;-77
2020/12/09 10:16:12;;;;;;;24.92;17.23;;;;;;;-2.41;76.48;98522.27;1804390;79;20905;-76
2020/12/09 10:18:40;;;;;;;28.87;17.55;;;;;;;-2.44;76.43;98522.30;1804458;79;21008;-76
2020/12/09 10:21:13;;;;;;;23.38;16.35;;;;;;;-2.43;76.45;98526.66;1804520;79;20964;-77
2020/12/09 10:23:41;;;;;;;29.72;18.23;;;;;;;-2.43;76.46;98518.77;1804351;79;22377;-76
2020/12/09 10:26:08;;;;;;;31.12;17.98;;;;;;;-2.44;76.47;98520.99;1804325;79;20972;-75
2020/12/09 10:28:36;;;;;;;29.23;17.90;;;;;;;-2.45;76.59;98520.55;1804329;79;20900;-77
2020/12/09 10:31:06;;;;;;;27.65;18.82;;;;;;;-2.44;76.76;98518.36;1802998;79;20901;-77
2020/12/09 10:33:33;;;;;;;23.70;16.10;;;;;;;-2.42;76.77;98518.73;1804358;79;20913;-78
2020/12/09 10:36:04;;;;;;;28.90;17.55;;;;;;;-2.41;76.63;98509.97;1804347;79;22198;-77
2020/12/09 10:38:32;;;;;;;30.82;18.67;;;;;;;-2.40;76.66;98516.09;1798703;78;21446;-76
2020/12/09 10:41:00;;;;;;;25.27;16.20;;;;;;;-2.38;76.70;98512.98;1797774;79;20937;-76
2020/12/09 10:43:28;;;;;;;28.73;18.70;;;;;;;-2.37;76.59;98514.27;1797877;79;21320;-75
2020/12/09 10:45:58;;;;;;;33.85;19.20;;;;;;;-2.38;76.70;98514.29;1797100;79;20921;-76
2020/12/09 10:48:26;;;;;;;26.65;17.62;;;;;;;-2.40;76.67;98503.83;1797936;79;22659;-76
2020/12/09 10:50:53;;;;;;;30.92;19.65;;;;;;;-2.41;76.56;98506.48;1797805;79;21363;-76
2020/12/09 10:53:21;;;;;;;31.57;18.85;;;;;;;-2.38;76.63;98498.51;1797883;79;20980;-76
2020/12/09 10:55:48;;;;;;;31.70;20.62;;;;;;;-2.37;76.69;98489.73;1797778;79;20913;-76
2020/12/09 10:58:15;;;;;;;35.65;19.82;;;;;;;-2.35;76.65;98489.25;1797931;79;20920;-77
2020/12/09 11:00:45;;;;;;;29.70;20.85;;;;;;;-2.33;76.63;98486.17;1797759;79;21440;-76
2020/12/09 11:03:14;;;;;;;33.83;21.95;;;;;;;-2.31;76.52;98487.00;1797677;79;20980;-76
2020/12/09 11:05:41;;;;;;;35.17;22.67;;;;;;;-2.31;76.60;98483.06;1797783;79;20984;-77
2020/12/09 11:08:10;;;;;;;31.37;21.07;;;;;;;-2.30;76.60;98480.86;1797797;79;20972;-75
2020/12/09 11:10:39;;;;;;;29.72;20.92;;;;;;;-2.31;76.61;98483.06;1797858;79;21460;-75
2020/12/09 11:13:07;;;;;;;32.03;20.70;;;;;;;-2.30;76.45;98482.18;1797840;79;21368;-77
2020/12/09 11:15:35;;;;;;;25.10;17.82;;;;;;;-2.29;76.56;98479.95;1797781;79;21478;-77
2020/12/09 11:18:03;;;;;;;25.40;16.52;;;;;;;-2.34;76.50;98484.42;1797839;79;20969;-78
2020/12/09 11:20:31;;;;;;;28.80;17.40;;;;;;;-2.34;76.46;98496.27;1797875;79;21016;-78
2020/12/09 11:22:59;;;;;;;27.98;18.12;;;;;;;-2.33;76.55;98489.23;1797886;79;21004;-76
2020/12/09 11:25:26;;;;;;;26.55;17.42;;;;;;;-2.31;76.39;98491.41;1797848;79;21643;-77
2020/12/09 11:27:54;;;;;;;23.90;16.77;;;;;;;-2.32;76.44;98473.42;1797742;79;20932;-77
2020/12/09 11:30:23;;;;;;;24.47;18.20;;;;;;;-2.30;76.49;98479.97;1797839;79;20917;-76
2020/12/09 11:32:52;;;;;;;26.02;17.27;;;;;;;-2.29;76.53;98468.11;1797672;79;21007;-77
2020/12/09 11:35:20;;;;;;;27.50;17.75;;;;;;;-2.26;76.47;98468.52;1797795;79;20988;-76
2020/12/09 11:37:48;;;;;;;31.35;19.07;;;;;;;-2.25;76.49;98471.58;1804590;79;21205;-76
2020/12/09 11:40:15;;;;;;;26.02;16.85;;;;;;;-2.25;76.67;98471.58;1815452;79;20921;-76
2020/12/09 11:42:45;;;;;;;27.58;18.40;;;;;;;-2.24;76.52;98474.19;1815291;79;20928;-77
2020/12/09 11:45:13;;;;;;;28.98;19.45;;;;;;;-2.24;76.50;98470.23;1815472;79;21188;-76
2020/12/09 11:47:42;;;;;;;43.35;20.75;;;;;;;-2.25;76.69;98478.16;1815428;78;20999;-76
2020/12/09 11:50:11;;;;;;;34.65;18.85;;;;;;;-2.22;76.68;98468.90;1815402;79;21781;-78
2020/12/09 11:52:39;;;;;;;33.02;19.12;;;;;;;-2.23;76.62;98469.32;1815374;79;20995;-75
2020/12/09 11:55:07;;;;;;;29.77;17.65;;;;;;;-2.21;76.66;98463.61;1815406;79;21326;-76
2020/12/09 11:57:34;;;;;;;28.70;18.67;;;;;;;-2.27;76.54;98463.71;1815381;79;20924;-77
2020/12/09 12:00:04;;;;;;;27.87;18.67;;;;;;;-2.30;76.83;98463.77;1815443;79;20971;-75